Time;durP1;ratioP1;P1;durP2;ratioP2;P2;SDS_P1;SDS_P2;PMS_P1;PMS_P2;Temp;Humidity;BMP_temperature;BMP_pressure;BME280_temperature;BME280_humidity;BME280_pressure;Samples;Min_cycle;Max_cycle;Signal;HPM_P1;HPM_P2
2023/04/30 00:01:44;;;;;;;48.80;25.30;;;384.50;2329.60;;;;;;5030440;28;20432;-71
2023/04/30 00:04:09;;;;;;;35.50;20.77;;;384.40;2329.60;;;;;;5026616;28;20025;-71
2023/04/30 00:06:35;;;;;;;56.28;29.10;;;384.50;2329.60;;;;;;5028411;28;20377;-71
2023/04/30 00:09:01;;;;;;;56.38;29.85;;;384.50;2329.60;;;;;;5027809;28;20025;-77
2023/04/30 00:11:26;;;;;;;45.30;22.08;;;384.60;2329.60;;;;;;5023584;28;20057;-71
2023/04/30 00:13:52;;;;;;;31.10;17.37;;;384.60;2329.60;;;;;;5028099;28;20051;-72
2023/04/30 00:16:18;;;;;;;31.80;17.92;;;384.50;2329.60;;;;;;5023637;28;20501;-72
2023/04/30 00:18:44;;;;;;;28.50;17.52;;;384.50;2329.60;;;;;;5027484;28;20466;-71
2023/04/30 00:21:10;;;;;;;27.27;16.40;;;384.60;2329.60;;;;;;5023556;28;20018;-71
2023/04/30 00:23:36;;;;;;;24.77;14.48;;;384.70;2329.60;;;;;;5023259;28;20021;-71
2023/04/30 00:26:01;;;;;;;18.52;13.63;;;384.60;2329.60;;;;;;5030347;28;20037;-70
2023/04/30 00:28:27;;;;;;;19.08;12.43;;;384.70;2329.60;;;;;;5025611;28;20065;-71
2023/04/30 00:30:53;;;;;;;18.30;12.43;;;384.60;2329.60;;;;;;5031061;28;20477;-71
2023/04/30 00:33:18;;;;;;;18.02;12.95;;;384.70;2329.60;;;;;;5027859;28;20033;-71
2023/04/30 00:35:44;;;;;;;17.17;12.73;;;384.70;2329.60;;;;;;5023807;28;20032;-71
2023/04/30 00:38:10;;;;;;;19.20;12.45;;;384.70;2329.60;;;;;;5027794;28;20370;-72
2023/04/30 00:40:37;;;;;;;19.27;12.15;;;384.80;2329.60;;;;;;5019608;28;20104;-72
2023/04/30 00:43:03;;;;;;;20.52;12.25;;;384.80;2329.60;;;;;;5026446;28;20026;-72
2023/04/30 00:45:28;;;;;;;20.83;12.43;;;384.70;2329.60;;;;;;5032410;28;20033;-71
2023/04/30 00:47:54;;;;;;;21.33;12.35;;;384.70;2329.60;;;;;;5032049;28;20021;-71
2023/04/30 00:50:21;;;;;;;19.52;12.57;;;384.70;2329.60;;;;;;5028311;28;20083;-71
2023/04/30 00:52:46;;;;;;;17.48;12.07;;;384.70;2329.60;;;;;;5031188;28;20042;-72
2023/04/30 00:55:13;;;;;;;20.40;12.05;;;384.70;2329.60;;;;;;5032999;28;20478;-81
2023/04/30 00:57:39;;;;;;;22.80;12.43;;;384.70;2329.60;;;;;;5032633;28;20485;-72
2023/04/30 01:00:10;;;;;;;19.67;14.00;;;384.70;2329.60;;;;;;5032305;28;20112;-72
2023/04/30 01:02:39;;;;;;;22.13;14.30;;;384.70;2329.60;;;;;;5032663;28;20021;-71
2023/04/30 01:05:06;;;;;;;24.38;14.90;;;384.70;2329.60;;;;;;5032671;28;20370;-81
2023/04/30 01:07:34;;;;;;;21.85;14.13;;;384.70;2329.60;;;;;;5019826;28;20036;-72
2023/04/30 01:09:59;;;;;;;22.75;15.40;;;384.70;2329.60;;;;;;5036578;28;20460;-72
2023/04/30 01:12:33;;;;;;;20.85;14.18;;;384.70;2329.60;;;;;;5036627;28;20014;-72
2023/04/30 01:15:17;;;;;;;22.40;14.43;;;384.70;2329.60;;;;;;5036289;28;20363;-74
2023/04/30 01:17:58;;;;;;;30.67;16.08;;;384.70;2329.60;;;;;;5036430;28;20390;-73
2023/04/30 01:20:27;;;;;;;27.25;15.80;;;384.70;2329.60;;;;;;5036257;28;20041;-72
2023/04/30 01:23:19;;;;;;;26.33;16.88;;;384.70;2329.60;;;;;;5036544;28;20029;-72
2023/04/30 01:26:10;;;;;;;26.52;16.05;;;384.60;2329.60;;;;;;5036278;28;20017;-72
2023/04/30 01:28:37;;;;;;;23.05;16.15;;;384.60;2329.60;;;;;;5036104;28;20053;-71
2023/04/30 01:31:02;;;;;;;21.70;14.73;;;384.50;2329.60;;;;;;5036211;28;20025;-71
2023/04/30 01:33:28;;;;;;;26.95;14.88;;;384.60;2329.60;;;;;;5036369;28;20456;-71
2023/04/30 01:36:08;;;;;;;25.85;15.27;;;384.60;2329.60;;;;;;5035896;28;20034;-73
2023/04/30 01:38:56;;;;;;;21.15;14.73;;;384.60;2329.60;;;;;;5036224;28;20396;-72
2023/04/30 01:41:45;;;;;;;26.75;16.38;;;384.60;2329.60;;;;;;5035651;28;20427;-71
2023/04/30 01:44:14;;;;;;;26.52;16.77;;;384.60;2329.60;;;;;;5035878;28;20028;-72
2023/04/30 01:46:43;;;;;;;30.90;16.77;;;384.60;2329.60;;;;;;5035563;28;20040;-75
2023/04/30 01:49:26;;;;;;;29.52;15.90;;;384.50;2329.60;;;;;;5022954;28;20132;-72
2023/04/30 01:52:03;;;;;;;27.42;15.88;;;384.40;2329.60;;;;;;5035553;28;20021;-78
2023/04/30 01:54:32;;;;;;;22.98;14.73;;;384.50;2329.60;;;;;;5035817;28;20088;-72
2023/04/30 01:57:06;;;;;;;19.38;14.05;;;384.40;2329.60;;;;;;5035667;28;20014;-72
2023/04/30 01:59:35;;;;;;;25.35;14.48;;;384.50;2329.60;;;;;;5035511;28;20022;-71
2023/04/30 02:02:01;;;;;;;22.80;14.75;;;384.50;2329.60;;;;;;5035437;28;20507;-71
2023/04/30 02:04:26;;;;;;;26.38;14.73;;;384.50;2329.60;;;;;;5035387;28;20048;-72
2023/04/30 02:06:52;;;;;;;19.77;13.50;;;384.50;2329.60;;;;;;5035278;28;20391;-71
2023/04/30 02:09:18;;;;;;;21.60;13.98;;;384.60;2329.60;;;;;;5035545;28;20389;-71
2023/04/30 02:11:44;;;;;;;20.67;14.40;;;384.60;2329.60;;;;;;5034922;28;20021;-77
2023/04/30 02:14:09;;;;;;;21.50;13.32;;;384.40;2329.60;;;;;;5035178;28;20029;-71
2023/04/30 02:16:35;;;;;;;19.42;13.73;;;384.20;2329.60;;;;;;5035181;28;20104;-71
2023/04/30 02:19:01;;;;;;;18.48;13.93;;;384.20;2329.60;;;;;;5022441;28;20026;-71
2023/04/30 02:21:27;;;;;;;21.52;13.40;;;384.10;2329.60;;;;;;5066277;28;20112;-71
2023/04/30 02:23:52;;;;;;;22.10;14.93;;;384.00;2329.60;;;;;;5034980;28;20057;-72
2023/04/30 02:26:18;;;;;;;22.55;13.32;;;384.00;2329.60;;;;;;5034880;28;20030;-71
2023/04/30 02:28:44;;;;;;;19.83;12.20;;;384.00;2329.60;;;;;;5034911;28;20060;-72
2023/04/30 02:31:10;;;;;;;21.92;14.30;;;384.00;2329.60;;;;;;5035038;28;20025;-75
2023/04/30 02:33:36;;;;;;;19.50;12.75;;;359.30;2329.60;;;;;;5034969;28;20025;-72
2023/04/30 02:36:01;;;;;;;21.35;12.65;;;359.20;2329.60;;;;;;5034801;28;20120;-72
2023/04/30 02:38:27;;;;;;;19.42;12.98;;;359.20;2329.60;;;;;;5035027;28;20033;-81
2023/04/30 02:40:53;;;;;;;22.02;12.70;;;359.20;2329.60;;;;;;5034905;28;20025;-72
2023/04/30 02:43:18;;;;;;;19.40;13.63;;;359.00;2329.60;;;;;;5034658;28;20048;-81
2023/04/30 02:45:44;;;;;;;16.65;12.30;;;358.80;2329.60;;;;;;5034634;28;20477;-71
2023/04/30 02:48:10;;;;;;;21.67;13.43;;;358.80;2329.60;;;;;;5034804;28;20466;-71
2023/04/30 02:50:36;;;;;;;24.42;13.98;;;358.80;2329.60;;;;;;5034476;28;20024;-71
2023/04/30 02:53:01;;;;;;;18.80;12.52;;;358.80;2329.60;;;;;;5034358;28;20419;-71
2023/04/30 02:55:27;;;;;;;19.50;13.43;;;358.70;2329.60;;;;;;5034381;28;20033;-71
2023/04/30 02:57:53;;;;;;;21.13;14.15;;;358.80;2329.60;;;;;;5034379;28;20064;-80
2023/04/30 03:00:19;;;;;;;20.45;14.68;;;358.70;2329.60;;;;;;5034165;28;20473;-76
2023/04/30 03:02:45;;;;;;;21.27;14.60;;;358.70;2329.60;;;;;;5034480;28;20025;-79
2023/04/30 03:05:10;;;;;;;19.38;13.13;;;358.50;2329.60;;;;;;5034512;28;20492;-74
2023/04/30 03:07:36;;;;;;;24.50;13.30;;;358.50;2329.60;;;;;;5034371;28;20490;-76
2023/04/30 03:10:02;;;;;;;23.42;14.45;;;358.50;2329.60;;;;;;5034342;28;20053;-72
2023/04/30 03:12:28;;;;;;;17.48;12.63;;;358.50;2329.60;;;;;;5034326;28;20427;-83
2023/04/30 03:14:53;;;;;;;25.92;13.70;;;358.40;2329.60;;;;;;5033978;28;20121;-72
2023/04/30 03:17:19;;;;;;;20.75;12.65;;;333.70;2329.60;;;;;;5034001;28;20465;-73
2023/04/30 03:19:44;;;;;;;21.67;13.48;;;358.40;2329.60;;;;;;5033817;28;20096;-71
2023/04/30 03:22:10;;;;;;;25.60;14.25;;;358.40;2329.60;;;;;;5033949;28;20084;-71
2023/04/30 03:24:36;;;;;;;21.73;13.27;;;358.50;2329.60;;;;;;5032613;28;20036;-71
2023/04/30 03:27:02;;;;;;;20.75;12.60;;;333.70;2329.60;;;;;;5033896;28;20108;-71
2023/04/30 03:29:28;;;;;;;24.20;13.18;;;333.70;2329.60;;;;;;5033822;28;20453;-74
2023/04/30 03:31:53;;;;;;;17.83;12.35;;;333.70;2329.60;;;;;;5032958;28;20030;-72
2023/04/30 03:34:19;;;;;;;17.65;12.30;;;333.70;2329.60;;;;;;5033444;28;20113;-71
2023/04/30 03:36:45;;;;;;;21.50;13.60;;;333.60;2329.60;;;;;;5033731;28;20028;-71
2023/04/30 03:39:10;;;;;;;22.10;13.30;;;333.40;2329.60;;;;;;5033588;28;20025;-71
2023/04/30 03:41:36;;;;;;;21.40;13.32;;;333.40;2329.60;;;;;;5033608;28;20048;-71
2023/04/30 03:44:02;;;;;;;20.38;13.38;;;333.30;2329.60;;;;;;5033382;28;20100;-71
2023/04/30 03:46:27;;;;;;;19.88;13.52;;;333.30;2329.60;;;;;;5033565;28;20537;-71
2023/04/30 03:48:53;;;;;;;22.92;13.07;;;333.30;2329.60;;;;;;5033553;28;20044;-73
2023/04/30 03:51:19;;;;;;;25.95;16.50;;;333.20;2329.60;;;;;;5033575;28;20041;-71
2023/04/30 03:53:45;;;;;;;21.05;13.05;;;333.30;2329.60;;;;;;5033038;28;20052;-71
2023/04/30 03:56:11;;;;;;;19.15;13.18;;;333.40;2329.60;;;;;;5033495;28;20041;-72
2023/04/30 03:58:38;;;;;;;21.25;13.07;;;333.40;2329.60;;;;;;5033352;28;20056;-71
2023/04/30 04:01:03;;;;;;;17.08;12.30;;;333.50;2329.60;;;;;;5033288;28;20052;-71
2023/04/30 04:03:30;;;;;;;29.58;14.45;;;333.50;2329.60;;;;;;5033357;28;20466;-71
2023/04/30 04:05:55;;;;;;;19.33;12.88;;;333.70;2329.60;;;;;;5032078;28;20037;-71
2023/04/30 04:08:21;;;;;;;17.63;13.00;;;333.70;2329.60;;;;;;5028625;28;20022;-70
2023/04/30 04:10:47;;;;;;;18.15;13.77;;;333.70;2329.60;;;;;;5024973;28;20026;-71
2023/04/30 04:13:12;;;;;;;19.25;13.50;;;333.70;2329.60;;;;;;5033115;28;20466;-76
2023/04/30 04:15:38;;;;;;;19.40;13.75;;;333.70;2329.60;;;;;;5032994;28;20437;-72
2023/04/30 04:18:06;;;;;;;20.05;14.75;;;358.40;2329.60;;;;;;5033281;28;20100;-82
2023/04/30 04:20:32;;;;;;;24.25;14.07;;;358.50;2329.60;;;;;;5033490;28;20021;-71
2023/04/30 04:22:58;;;;;;;19.25;14.02;;;358.40;2329.60;;;;;;5028221;28;20080;-71
2023/04/30 04:25:23;;;;;;;21.33;14.68;;;358.60;2329.60;;;;;;5025289;28;20037;-81
2023/04/30 04:27:51;;;;;;;19.17;14.32;;;358.60;2329.60;;;;;;5019724;28;20022;-71
2023/04/30 04:30:17;;;;;;;22.30;14.95;;;358.70;2329.60;;;;;;5033197;28;20076;-71
2023/04/30 04:32:48;;;;;;;30.85;14.95;;;358.70;2329.60;;;;;;5032885;28;20465;-71
2023/04/30 04:35:14;;;;;;;23.45;14.52;;;358.80;2329.60;;;;;;5033105;28;20033;-71
2023/04/30 04:37:41;;;;;;;26.65;15.38;;;358.80;2329.60;;;;;;5032979;28;20079;-71
2023/04/30 04:40:07;;;;;;;22.85;15.02;;;358.80;2329.60;;;;;;5033163;28;20056;-71
2023/04/30 04:42:33;;;;;;;22.00;15.43;;;358.80;2329.60;;;;;;5033043;28;20457;-74
2023/04/30 04:44:58;;;;;;;24.10;14.50;;;358.90;2329.60;;;;;;5036872;28;20041;-73
2023/04/30 04:47:24;;;;;;;20.70;15.23;;;359.00;2329.60;;;;;;5036769;28;20101;-71
2023/04/30 04:49:50;;;;;;;21.77;14.77;;;359.10;2329.60;;;;;;5036952;28;20032;-72
2023/04/30 04:52:16;;;;;;;25.33;16.00;;;359.10;2329.60;;;;;;5036547;28;20025;-73
2023/04/30 04:54:41;;;;;;;24.42;16.00;;;359.20;2329.60;;;;;;5023779;28;20038;-73
2023/04/30 04:57:07;;;;;;;26.40;15.93;;;359.20;2329.60;;;;;;5036730;28;20076;-72
2023/04/30 04:59:33;;;;;;;21.38;15.63;;;359.30;2329.60;;;;;;5036525;28;20021;-77
2023/04/30 05:01:59;;;;;;;23.75;16.67;;;359.30;2329.60;;;;;;5036362;28;20033;-73
2023/04/30 05:04:25;;;;;;;24.15;15.82;;;384.00;2329.60;;;;;;5036680;28;20427;-73
2023/04/30 05:06:50;;;;;;;24.50;17.50;;;384.00;2329.60;;;;;;5028601;28;20021;-73
2023/04/30 05:09:16;;;;;;;27.15;16.52;;;384.00;2329.60;;;;;;5030243;28;20029;-76
2023/04/30 05:11:43;;;;;;;28.52;17.67;;;384.00;2329.60;;;;;;5027680;28;20013;-74
2023/04/30 05:14:09;;;;;;;20.15;15.95;;;384.10;2329.60;;;;;;5032735;28;20025;-74
2023/04/30 05:16:34;;;;;;;23.05;16.48;;;384.20;2329.60;;;;;;5028653;28;20432;-72
2023/04/30 05:19:00;;;;;;;28.17;17.70;;;384.20;2329.60;;;;;;5027553;28;20025;-73
2023/04/30 05:21:28;;;;;;;27.23;17.08;;;384.30;2329.60;;;;;;5029042;28;20021;-74
2023/04/30 05:23:54;;;;;;;23.30;16.13;;;384.40;2329.60;;;;;;5023544;28;20018;-73
2023/04/30 05:26:23;;;;;;;24.83;16.60;;;384.40;2329.60;;;;;;5020549;28;20072;-73
2023/04/30 05:28:49;;;;;;;25.05;15.35;;;384.40;2329.60;;;;;;5030942;28;20501;-71
2023/04/30 05:31:15;;;;;;;33.00;19.02;;;384.40;2329.60;;;;;;5026672;28;20389;-71
2023/04/30 05:33:41;;;;;;;32.05;23.02;;;384.40;2329.60;;;;;;5030942;28;20018;-73
2023/04/30 05:36:07;;;;;;;26.75;20.00;;;384.50;2329.60;;;;;;5029769;28;20033;-80
2023/04/30 05:38:32;;;;;;;28.75;20.25;;;384.50;2329.60;;;;;;5033224;28;20029;-72
2023/04/30 05:40:59;;;;;;;27.17;18.05;;;384.60;2329.60;;;;;;5032399;28;20423;-72
2023/04/30 05:43:25;;;;;;;26.55;18.30;;;384.60;2329.60;;;;;;5032391;28;20044;-72
2023/04/30 05:45:50;;;;;;;29.27;19.15;;;384.70;2329.60;;;;;;5027169;28;20458;-70
2023/04/30 05:48:16;;;;;;;27.63;16.92;;;384.70;2329.60;;;;;;5033247;28;20021;-76
2023/04/30 05:50:42;;;;;;;28.63;19.10;;;384.90;2329.60;;;;;;5024012;28;20021;-72
2023/04/30 05:53:08;;;;;;;31.55;19.83;;;384.90;2329.60;;;;;;5028534;28;20136;-71
2023/04/30 05:55:33;;;;;;;28.80;18.38;;;409.60;2355.20;;;;;;5025708;28;20056;-72
2023/04/30 05:57:59;;;;;;;23.52;17.27;;;384.90;2329.60;;;;;;5027806;28;20048;-71
2023/04/30 06:00:25;;;;;;;26.23;17.67;;;409.70;2355.20;;;;;;5023942;28;20455;-70
2023/04/30 06:02:51;;;;;;;30.92;19.48;;;409.70;2355.20;;;;;;5026250;28;20363;-71
2023/04/30 06:05:17;;;;;;;25.75;18.65;;;409.70;2355.20;;;;;;5026091;28;20054;-71
2023/04/30 06:07:43;;;;;;;34.47;20.08;;;409.80;2355.20;;;;;;5029227;28;20076;-71
2023/04/30 06:10:09;;;;;;;26.48;18.60;;;409.90;2355.20;;;;;;5032235;28;20037;-72
2023/04/30 06:12:35;;;;;;;24.33;18.05;;;410.00;2355.20;;;;;;5030755;28;20022;-79
2023/04/30 06:15:01;;;;;;;29.50;18.38;;;410.20;2355.20;;;;;;5031878;28;20167;-75
2023/04/30 06:17:26;;;;;;;29.80;21.48;;;410.20;2355.20;;;;;;5025071;28;20432;-73
2023/04/30 06:19:52;;;;;;;33.10;21.50;;;410.30;2355.20;;;;;;5030078;28;20022;-72
2023/04/30 06:22:18;;;;;;;30.92;21.85;;;410.30;2355.20;;;;;;5031553;28;20152;-72
2023/04/30 06:24:44;;;;;;;30.92;22.23;;;410.50;2355.20;;;;;;5031857;28;20470;-74
2023/04/30 06:27:10;;;;;;;34.17;21.88;;;435.30;2355.20;;;;;;5016649;28;20026;-73
2023/04/30 06:29:35;;;;;;;33.92;22.08;;;435.40;2355.20;;;;;;5029726;28;20030;-74
2023/04/30 06:32:01;;;;;;;23.92;16.52;;;435.50;2355.20;;;;;;5031893;28;20474;-76
2023/04/30 06:34:27;;;;;;;25.77;16.35;;;435.50;2355.20;;;;;;5025235;28;20034;-80
2023/04/30 06:36:52;;;;;;;25.00;15.80;;;435.60;2355.20;;;;;;5033598;28;20021;-71
2023/04/30 06:39:18;;;;;;;20.30;15.35;;;435.60;2355.20;;;;;;5023069;28;20029;-75
2023/04/30 06:41:46;;;;;;;19.95;15.23;;;435.70;2355.20;;;;;;5032304;28;20381;-75
2023/04/30 06:44:11;;;;;;;24.95;16.60;;;435.70;2355.20;;;;;;5028614;28;20017;-72
2023/04/30 06:46:37;;;;;;;23.73;15.43;;;435.80;2355.20;;;;;;5025220;28;20072;-81
2023/04/30 06:49:03;;;;;;;22.55;14.98;;;435.80;2355.20;;;;;;5030535;28;20022;-72
2023/04/30 06:51:29;;;;;;;23.08;15.13;;;435.80;2355.20;;;;;;5027086;28;20048;-73
2023/04/30 06:53:55;;;;;;;22.88;15.57;;;435.90;2355.20;;;;;;5025958;28;20041;-72
2023/04/30 06:56:21;;;;;;;22.80;14.15;;;435.90;2355.20;;;;;;5033779;28;20446;-71
2023/04/30 06:58:49;;;;;;;23.63;16.02;;;435.90;2355.20;;;;;;5033727;28;20032;-71
2023/04/30 07:01:14;;;;;;;23.63;16.02;;;435.90;2355.20;;;;;;5025578;28;20053;-71
2023/04/30 07:03:40;;;;;;;25.27;17.83;;;435.90;2355.20;;;;;;5028117;28;20029;-72
2023/04/30 07:06:06;;;;;;;24.23;17.02;;;435.80;2355.20;;;;;;5028867;28;20022;-72
2023/04/30 07:08:31;;;;;;;24.02;18.30;;;435.90;2355.20;;;;;;5019750;28;20026;-71
2023/04/30 07:10:57;;;;;;;24.40;17.27;;;435.90;2355.20;;;;;;5022430;28;20034;-73
2023/04/30 07:13:23;;;;;;;21.52;17.65;;;435.90;2355.20;;;;;;5022411;28;20474;-72
2023/04/30 07:15:48;;;;;;;24.48;17.55;;;435.90;2355.20;;;;;;5023742;28;20315;-72
2023/04/30 07:18:15;;;;;;;20.95;16.40;;;435.90;2355.20;;;;;;5028690;28;20028;-73
2023/04/30 07:20:40;;;;;;;22.70;17.15;;;436.00;2355.20;;;;;;5022804;28;20068;-72
2023/04/30 07:23:06;;;;;;;25.33;16.15;;;436.00;2355.20;;;;;;5032032;28;20053;-73
2023/04/30 07:25:32;;;;;;;24.77;17.40;;;436.00;2355.20;;;;;;5032506;28;20025;-72
2023/04/30 07:27:57;;;;;;;27.08;18.23;;;436.00;2355.20;;;;;;5028935;28;20025;-72
2023/04/30 07:30:23;;;;;;;21.05;16.23;;;436.00;2355.20;;;;;;5024415;28;20410;-72
2023/04/30 07:32:49;;;;;;;25.55;17.38;;;436.00;2355.20;;;;;;5028098;28;20125;-72
2023/04/30 07:35:14;;;;;;;25.40;16.25;;;435.90;2355.20;;;;;;5029023;28;20041;-71
2023/04/30 07:37:42;;;;;;;23.90;17.30;;;436.10;2355.20;;;;;;5028606;28;20029;-72
2023/04/30 07:40:11;;;;;;;25.92;17.02;;;436.10;2355.20;;;;;;5028962;28;20049;-73
2023/04/30 07:42:41;;;;;;;22.35;17.85;;;436.10;2355.20;;;;;;5026092;28;20458;-72
2023/04/30 07:45:07;;;;;;;22.80;16.90;;;460.80;2380.80;;;;;;5025910;28;20378;-73
2023/04/30 07:47:33;;;;;;;23.05;16.35;;;460.80;2380.80;;;;;;5029440;28;20040;-76
2023/04/30 07:49:59;;;;;;;20.85;15.82;;;460.90;2380.80;;;;;;5032846;28;20029;-72
2023/04/30 07:52:25;;;;;;;28.63;16.48;;;461.00;2380.80;;;;;;5028815;28;20394;-73
2023/04/30 07:54:50;;;;;;;24.45;15.90;;;461.20;2380.80;;;;;;5026995;28;20477;-70
2023/04/30 07:57:16;;;;;;;19.83;16.48;;;461.40;2380.80;;;;;;5029242;28;20025;-72
2023/04/30 07:59:42;;;;;;;26.38;16.63;;;461.40;2380.80;;;;;;5029668;28;20435;-75
2023/04/30 08:02:08;;;;;;;24.77;16.65;;;461.50;2380.80;;;;;;5025044;28;20030;-73
2023/04/30 08:04:34;;;;;;;23.02;16.75;;;461.50;2380.80;;;;;;5030196;28;20025;-72
2023/04/30 08:07:01;;;;;;;25.33;16.50;;;461.60;2380.80;;;;;;5024056;28;20077;-79
2023/04/30 08:09:26;;;;;;;25.27;16.48;;;461.70;2380.80;;;;;;5018314;28;20032;-74
2023/04/30 08:11:52;;;;;;;26.75;16.65;;;486.40;2380.80;;;;;;5028203;28;20108;-78
2023/04/30 08:14:20;;;;;;;23.25;16.45;;;486.40;2380.80;;;;;;5022407;28;20478;-74
2023/04/30 08:16:45;;;;;;;22.25;15.85;;;486.40;2380.80;;;;;;5023073;28;20108;-73
2023/04/30 08:19:11;;;;;;;25.25;16.30;;;486.40;2380.80;;;;;;5025936;28;20093;-73
2023/04/30 08:21:37;;;;;;;19.20;14.90;;;461.70;2380.80;;;;;;5024828;28;20049;-72
2023/04/30 08:24:03;;;;;;;23.65;16.25;;;461.50;2380.80;;;;;;5025926;28;20030;-72
2023/04/30 08:26:29;;;;;;;20.88;15.15;;;461.70;2380.80;;;;;;5033185;28;20442;-73
2023/04/30 08:28:55;;;;;;;23.25;15.77;;;461.70;2380.80;;;;;;5027847;28;20033;-73
2023/04/30 08:31:21;;;;;;;20.17;15.68;;;461.70;2380.80;;;;;;5031249;28;20537;-73
2023/04/30 08:33:46;;;;;;;19.92;15.40;;;486.40;2380.80;;;;;;5025449;28;20104;-78
2023/04/30 08:36:12;;;;;;;20.05;15.88;;;486.50;2380.80;;;;;;5032389;28;20072;-78
2023/04/30 08:38:37;;;;;;;17.65;13.60;;;486.60;2380.80;;;;;;5030148;28;20458;-72
2023/04/30 08:41:05;;;;;;;22.05;14.02;;;;;;;;;;5030946;28;20367;-76
2023/04/30 08:43:34;;;;;;;18.67;13.98;;;;;;;;;;5024028;28;20017;-71
2023/04/30 08:46:00;;;;;;;21.20;13.75;;;;;;;;;;5029775;28;20441;-71
2023/04/30 08:48:27;;;;;;;20.13;14.73;;;;;;;;;;5024532;28;20030;-74
2023/04/30 08:50:53;;;;;;;18.63;13.95;;;;;;;;;;5024394;28;20037;-77
2023/04/30 08:53:20;;;;;;;22.58;14.30;;;461.60;2380.80;;;;;;5026122;28;20053;-73
2023/04/30 08:55:46;;;;;;;29.35;20.15;;;461.70;2380.80;;;;;;5026980;28;20420;-78
2023/04/30 08:58:12;;;;;;;20.40;15.20;;;461.70;2380.80;;;;;;5018885;28;20080;-79
2023/04/30 09:00:39;;;;;;;24.38;14.95;;;461.70;2380.80;;;;;;5023378;28;20026;-73
2023/04/30 09:03:06;;;;;;;29.85;17.40;;;461.70;2380.80;;;;;;5026194;28;20049;-73
2023/04/30 09:05:32;;;;;;;20.05;14.60;;;461.70;2380.80;;;;;;5023317;28;20033;-78
2023/04/30 09:07:57;;;;;;;21.85;15.18;;;461.70;2380.80;;;;;;5030387;28;20036;-71
2023/04/30 09:10:23;;;;;;;35.17;22.38;;;461.70;2380.80;;;;;;5025140;28;20032;-71
2023/04/30 09:13:07;;;;;;;23.98;17.77;;;461.70;2380.80;;;;;;5021726;28;20099;-73
2023/04/30 09:15:35;;;;;;;18.60;14.32;;;486.40;2380.80;;;;;;5024540;28;20121;-73
2023/04/30 09:18:18;;;;;;;20.63;13.85;;;486.50;2380.80;;;;;;5023873;28;20026;-71
2023/04/30 09:21:00;;;;;;;26.15;15.50;;;486.80;2380.80;;;;;;5027057;28;20115;-72
2023/04/30 09:23:26;;;;;;;21.67;14.55;;;486.90;2380.80;;;;;;5026264;28;20026;-71
2023/04/30 09:25:52;;;;;;;21.58;16.30;;;486.80;2380.80;;;;;;5024373;28;20136;-72
2023/04/30 09:28:23;;;;;;;25.38;15.50;;;486.80;2380.80;;;;;;5031642;28;20048;-71
2023/04/30 09:30:49;;;;;;;22.27;14.68;;;486.90;2380.80;;;;;;5024645;28;20018;-77
2023/04/30 09:33:15;;;;;;;24.30;16.00;;;486.90;2380.80;;;;;;5033316;28;20484;-77
2023/04/30 09:35:41;;;;;;;28.13;16.42;;;487.10;2380.80;;;;;;5026905;28;20038;-73
2023/04/30 09:38:07;;;;;;;20.95;16.60;;;487.30;2380.80;;;;;;5030316;28;20136;-70
2023/04/30 09:40:39;;;;;;;23.00;15.85;;;487.10;2380.80;;;;;;5030697;28;20057;-72
2023/04/30 09:43:05;;;;;;;31.90;17.42;;;512.10;2380.80;;;;;;5026500;28;20049;-71
2023/04/30 09:45:50;;;;;;;22.33;15.75;;;512.60;2380.80;;;;;;5022050;28;20112;-77
2023/04/30 09:48:17;;;;;;;24.90;15.88;;;512.70;2380.80;;;;;;5030803;28;20018;-72
2023/04/30 09:50:44;;;;;;;25.27;16.92;;;537.70;2406.40;;;;;;5023957;28;20025;-73
2023/04/30 09:53:13;;;;;;;20.73;15.07;;;537.80;2406.40;;;;;;5028085;28;20076;-71
2023/04/30 09:55:42;;;;;;;21.02;14.80;;;512.80;2380.80;;;;;;5030445;28;20390;-71
2023/04/30 09:58:09;;;;;;;19.02;14.73;;;537.60;2406.40;;;;;;5020883;28;20100;-74
2023/04/30 10:00:36;;;;;;;21.02;15.23;;;537.80;2406.40;;;;;;5030169;28;20112;-77
2023/04/30 10:03:13;;;;;;;19.70;15.18;;;538.10;2406.40;;;;;;5025280;28;20560;-75
2023/04/30 10:05:45;;;;;;;23.63;15.35;;;563.20;2304.00;;;;;;5030436;28;20393;-71
2023/04/30 10:08:20;;;;;;;18.10;12.65;;;563.60;2099.20;;;;;;5024295;28;20049;-73
2023/04/30 10:10:52;;;;;;;18.20;13.10;;;563.80;2073.60;;;;;;5023695;28;20030;-74
2023/04/30 10:13:19;;;;;;;18.13;11.40;;;563.70;2048.00;;;;;;5031099;28;20026;-72
2023/04/30 10:15:50;;;;;;;16.80;13.00;;;564.00;2176.00;;;;;;5026264;28;20113;-77
2023/04/30 10:18:25;;;;;;;18.73;14.23;;;588.80;2048.00;;;;;;5024840;28;20121;-77
2023/04/30 10:20:53;;;;;;;17.40;11.02;;;563.90;1945.60;;;;;;5028240;28;20072;-72
2023/04/30 10:23:21;;;;;;;18.25;12.23;;;563.60;1996.80;;;;;;5029688;28;20033;-72
2023/04/30 10:25:47;;;;;;;16.70;12.10;;;563.90;1971.20;;;;;;5021964;28;20426;-72
2023/04/30 10:28:13;;;;;;;20.60;13.25;;;563.90;1920.00;;;;;;5034035;28;20033;-72
2023/04/30 10:30:41;;;;;;;17.90;12.02;;;563.90;1817.60;;;;;;5027817;28;20370;-73
2023/04/30 10:33:31;;;;;;;20.38;11.57;;;563.60;1894.40;;;;;;5030496;28;20612;-74
2023/04/30 10:36:00;;;;;;;15.77;10.15;;;563.40;1894.40;;;;;;5055178;28;20445;-71
2023/04/30 10:38:29;;;;;;;17.83;11.38;;;538.50;1971.20;;;;;;5023265;28;20466;-74
2023/04/30 10:41:00;;;;;;;16.55;10.80;;;563.60;1945.60;;;;;;5031100;28;20026;-71
2023/04/30 10:43:28;;;;;;;15.73;10.00;;;564.10;1894.40;;;;;;5025148;28;20017;-72
2023/04/30 10:45:57;;;;;;;10.90;8.85;;;589.00;1740.80;;;;;;5031926;28;20025;-78
2023/04/30 10:48:24;;;;;;;14.68;9.27;;;589.30;1689.60;;;;;;5034095;28;20025;-72
2023/04/30 10:50:51;;;;;;;17.35;9.15;;;589.70;1766.40;;;;;;5025802;28;20022;-74
2023/04/30 10:53:19;;;;;;;15.70;9.60;;;589.60;1715.20;;;;;;5024528;28;20407;-71
2023/04/30 10:55:53;;;;;;;13.52;9.70;;;589.30;1664.00;;;;;;5033035;28;20033;-75
2023/04/30 10:58:25;;;;;;;15.57;9.90;;;589.30;1715.20;;;;;;5027779;28;20075;-74
2023/04/30 11:01:00;;;;;;;15.35;8.90;;;589.70;1612.80;;;;;;5026933;28;20026;-75
2023/04/30 11:03:28;;;;;;;12.43;8.40;;;614.60;1664.00;;;;;;5023196;28;20097;-71
2023/04/30 11:05:54;;;;;;;11.57;7.78;;;614.60;1638.40;;;;;;5023237;28;20025;-75
2023/04/30 11:08:38;;;;;;;13.27;8.85;;;614.80;1612.80;;;;;;5031332;28;20053;-75
2023/04/30 11:11:04;;;;;;;13.70;8.90;;;614.80;1664.00;;;;;;5032366;28;20029;-72
2023/04/30 11:13:44;;;;;;;13.68;8.27;;;615.10;1638.40;;;;;;5024958;28;20021;-74
2023/04/30 11:16:10;;;;;;;11.35;8.65;;;614.90;1664.00;;;;;;5022099;28;20191;-73
2023/04/30 11:18:45;;;;;;;15.27;8.60;;;589.70;1638.40;;;;;;5029898;28;20175;-73
2023/04/30 11:21:12;;;;;;;13.13;9.10;;;614.60;1587.20;;;;;;5027019;28;20465;-76
2023/04/30 11:23:42;;;;;;;12.48;8.10;;;614.90;1612.80;;;;;;5030008;28;20025;-76
2023/04/30 11:26:09;;;;;;;12.35;8.23;;;589.60;1587.20;;;;;;5032094;28;20083;-74
2023/04/30 11:28:36;;;;;;;12.80;6.72;;;614.70;1612.80;;;;;;5028186;28;20022;-73
2023/04/30 11:31:03;;;;;;;12.30;8.35;;;589.70;1638.40;;;;;;5026149;28;20030;-74
2023/04/30 11:33:30;;;;;;;14.25;7.32;;;589.40;1664.00;;;;;;5026332;28;20096;-77
2023/04/30 11:35:58;;;;;;;12.60;6.35;;;589.10;1638.40;;;;;;5025525;28;20108;-75
2023/04/30 11:38:34;;;;;;;14.13;8.15;;;614.40;1664.00;;;;;;5024740;28;20018;-73
2023/04/30 11:41:00;;;;;;;;;;;615.00;1587.20;;;;;;5021762;28;20036;-73
2023/04/30 11:43:28;;;;;;;11.13;7.85;;;615.30;1510.40;;;;;;5026389;28;20012;-73
2023/04/30 11:46:10;;;;;;;7.90;6.05;;;614.60;1561.60;;;;;;5028612;28;20037;-77
2023/04/30 11:48:38;;;;;;;12.95;6.20;;;589.50;1587.20;;;;;;5023891;28;20030;-73
2023/04/30 11:51:19;;;;;;;8.65;5.57;;;589.10;1638.40;;;;;;5023459;28;20021;-75
2023/04/30 11:53:49;;;;;;;8.52;5.45;;;589.60;1638.40;;;;;;5026425;28;20046;-74
2023/04/30 11:56:22;;;;;;;9.55;5.63;;;589.20;1664.00;;;;;;5024757;28;20449;-73
2023/04/30 11:58:50;;;;;;;14.48;8.52;;;589.40;1664.00;;;;;;5032067;28;20482;-74
2023/04/30 12:01:16;;;;;;;13.27;7.03;;;589.70;1587.20;;;;;;5032525;28;20028;-77
2023/04/30 12:03:53;;;;;;;10.63;6.18;;;589.70;1587.20;;;;;;5022992;28;20052;-74
2023/04/30 12:06:26;;;;;;;7.65;6.03;;;614.60;1536.00;;;;;;5024891;28;20026;-75